createdAt,value
2017-09-06T00:01:14.664Z,3.20
2017-09-06T00:03:42.095Z,4.20
2017-09-06T00:06:09.541Z,4.43
2017-09-06T00:08:36.975Z,4.40
2017-09-06T00:11:05.193Z,3.87
2017-09-06T00:13:32.639Z,3.73
2017-09-06T00:16:00.073Z,3.23
2017-09-06T00:18:27.510Z,3.60
2017-09-06T00:20:54.946Z,3.50
2017-09-06T00:23:22.379Z,3.27
2017-09-06T00:25:49.819Z,3.83
2017-09-06T00:28:17.251Z,4.70
2017-09-06T00:30:44.701Z,4.80
2017-09-06T00:33:12.913Z,4.10
2017-09-06T00:35:40.355Z,4.60
2017-09-06T00:38:07.792Z,4.13
2017-09-06T00:40:35.224Z,4.80
2017-09-06T00:43:02.664Z,4.10
2017-09-06T00:45:30.106Z,4.20
2017-09-06T00:47:57.552Z,4.27
2017-09-06T00:50:24.980Z,4.17
2017-09-06T00:52:52.423Z,3.97
2017-09-06T00:55:19.859Z,4.63
2017-09-06T00:57:47.296Z,4.30
2017-09-06T01:00:14.730Z,4.47
2017-09-06T01:02:42.172Z,4.03
2017-09-06T01:05:09.605Z,3.63
2017-09-06T01:07:37.048Z,4.40
2017-09-06T01:10:04.480Z,4.70
2017-09-06T01:12:31.927Z,4.83
2017-09-06T01:14:59.365Z,4.77
2017-09-06T01:17:26.800Z,4.20
2017-09-06T01:19:54.236Z,4.00
2017-09-06T01:22:21.675Z,4.90
2017-09-06T01:24:49.113Z,4.60
2017-09-06T01:27:16.544Z,4.77
2017-09-06T01:29:43.988Z,4.17
2017-09-06T01:32:11.424Z,4.00
2017-09-06T01:34:38.880Z,4.30
2017-09-06T01:37:06.311Z,4.40
2017-09-06T01:39:33.744Z,3.97
2017-09-06T01:42:01.184Z,4.30
2017-09-06T01:44:28.621Z,3.37
2017-09-06T01:46:56.056Z,3.70
2017-09-06T01:49:23.497Z,4.30
2017-09-06T01:51:50.937Z,3.90
2017-09-06T01:54:18.369Z,3.80
2017-09-06T01:56:45.808Z,3.63
2017-09-06T01:59:13.245Z,3.30
2017-09-06T02:01:40.685Z,4.07
2017-09-06T02:04:08.120Z,4.10
2017-09-06T02:06:35.564Z,4.20
2017-09-06T02:09:03.000Z,3.60
2017-09-06T02:11:30.439Z,4.10
2017-09-06T02:13:57.882Z,3.53
2017-09-06T02:16:25.328Z,3.50
2017-09-06T02:18:52.756Z,4.00
2017-09-06T02:21:20.196Z,3.37
2017-09-06T02:23:47.632Z,3.83
2017-09-06T02:26:15.059Z,3.87
2017-09-06T02:28:43.271Z,4.10
2017-09-06T02:31:10.708Z,4.23
2017-09-06T02:33:38.147Z,3.60
2017-09-06T02:36:05.585Z,4.03
2017-09-06T02:38:33.026Z,4.17
2017-09-06T02:41:00.457Z,3.60
2017-09-06T02:43:27.907Z,3.50
2017-09-06T02:45:55.335Z,3.50
2017-09-06T02:48:22.780Z,3.73
2017-09-06T02:50:50.216Z,4.10
2017-09-06T02:53:17.668Z,3.40
2017-09-06T02:55:45.104Z,4.53
2017-09-06T02:58:12.541Z,4.23
2017-09-06T03:00:39.981Z,4.53
2017-09-06T03:03:07.420Z,3.77
2017-09-06T03:05:34.858Z,3.97
2017-09-06T03:08:02.287Z,4.00
2017-09-06T03:10:29.728Z,3.00
2017-09-06T03:12:57.164Z,4.30
2017-09-06T03:15:24.604Z,3.33
2017-09-06T03:17:52.044Z,3.73
2017-09-06T03:20:19.485Z,3.40
2017-09-06T03:22:46.927Z,3.47
2017-09-06T03:25:14.359Z,3.43
2017-09-06T03:27:41.796Z,3.00
2017-09-06T03:30:09.242Z,3.80
2017-09-06T03:32:36.681Z,3.90
2017-09-06T03:35:04.115Z,3.30
2017-09-06T03:37:31.557Z,2.87
2017-09-06T03:39:59.016Z,2.63
2017-09-06T03:42:26.456Z,3.43
2017-09-06T03:44:53.889Z,3.17
2017-09-06T03:47:21.323Z,2.77
2017-09-06T03:49:48.761Z,3.17
2017-09-06T03:52:16.200Z,2.90
2017-09-06T03:54:43.632Z,2.33
2017-09-06T03:57:11.081Z,2.80
2017-09-06T03:59:38.511Z,3.47
2017-09-06T04:02:05.956Z,2.57
2017-09-06T04:04:33.389Z,3.03
2017-09-06T04:07:00.832Z,2.63
2017-09-06T04:09:28.269Z,2.80
2017-09-06T04:11:55.717Z,2.93
2017-09-06T04:14:23.145Z,2.43
2017-09-06T04:16:50.589Z,2.80
2017-09-06T04:19:18.020Z,3.20
2017-09-06T04:21:45.471Z,2.20
2017-09-06T04:24:12.908Z,2.93
2017-09-06T04:26:41.109Z,2.33
2017-09-06T04:29:08.552Z,2.43
2017-09-06T04:31:35.999Z,2.33
2017-09-06T04:34:03.438Z,2.23
2017-09-06T04:36:30.869Z,2.50
2017-09-06T04:38:58.308Z,2.80
2017-09-06T04:41:25.770Z,3.00
2017-09-06T04:43:53.197Z,1.90
2017-09-06T04:46:20.634Z,2.10
2017-09-06T04:48:48.076Z,2.47
2017-09-06T04:51:15.511Z,2.40
2017-09-06T04:53:42.951Z,2.47
2017-09-06T04:56:10.385Z,2.00
2017-09-06T04:58:37.829Z,2.73
2017-09-06T05:01:05.264Z,2.60
2017-09-06T05:03:32.709Z,2.10
2017-09-06T05:06:00.149Z,3.00
2017-09-06T05:08:27.588Z,2.33
2017-09-06T05:10:55.030Z,2.60
2017-09-06T05:13:22.469Z,2.83
2017-09-06T05:15:49.908Z,2.20
2017-09-06T05:18:17.340Z,2.53
2017-09-06T05:20:44.792Z,2.50
2017-09-06T05:23:12.224Z,2.10
2017-09-06T05:25:39.667Z,2.50
2017-09-06T05:28:07.104Z,1.80
2017-09-06T05:30:34.554Z,2.10
2017-09-06T05:33:01.977Z,2.50
2017-09-06T05:35:29.425Z,2.03
2017-09-06T05:37:56.857Z,2.23
2017-09-06T05:40:24.301Z,1.80
2017-09-06T05:42:51.740Z,1.80
2017-09-06T05:45:19.183Z,2.13
2017-09-06T05:47:47.468Z,1.80
2017-09-06T05:50:14.908Z,2.03
2017-09-06T05:52:42.353Z,2.03
2017-09-06T05:55:09.804Z,1.77
2017-09-06T05:57:37.241Z,1.93
2017-09-06T06:00:04.678Z,1.70
2017-09-06T06:02:32.121Z,1.97
2017-09-06T06:04:59.552Z,1.90
2017-09-06T06:07:27.002Z,1.67
2017-09-06T06:09:54.436Z,1.80
2017-09-06T06:12:21.880Z,2.13
2017-09-06T06:14:49.332Z,1.90
2017-09-06T06:17:16.763Z,2.23
2017-09-06T06:19:44.199Z,1.97
2017-09-06T06:22:11.639Z,2.97
2017-09-06T06:24:39.072Z,2.47
2017-09-06T06:27:06.517Z,2.40
2017-09-06T06:29:33.956Z,2.00
2017-09-06T06:32:01.405Z,2.00
2017-09-06T06:34:28.851Z,2.60
2017-09-06T06:36:56.281Z,2.60
2017-09-06T06:39:23.928Z,1.90
2017-09-06T06:41:51.365Z,2.17
2017-09-06T06:44:18.815Z,2.17
2017-09-06T06:46:46.244Z,2.37
2017-09-06T06:49:13.796Z,1.77
2017-09-06T06:51:41.229Z,2.00
2017-09-06T06:54:08.704Z,2.30
2017-09-06T06:56:36.141Z,2.10
2017-09-06T06:59:03.616Z,2.10
2017-09-06T07:01:31.051Z,2.07
2017-09-06T07:03:58.509Z,2.70
2017-09-06T07:06:25.943Z,1.90
2017-09-06T07:08:53.383Z,2.60
2017-09-06T07:11:20.824Z,2.50
2017-09-06T07:13:48.268Z,2.60
2017-09-06T07:16:15.820Z,2.00
2017-09-06T07:18:43.255Z,2.47
2017-09-06T07:21:10.696Z,2.90
2017-09-06T07:23:38.189Z,3.00
2017-09-06T07:26:05.632Z,3.83
2017-09-06T07:28:33.097Z,3.07
2017-09-06T07:31:00.541Z,3.50
2017-09-06T07:33:28.009Z,2.40
2017-09-06T07:35:55.454Z,3.30
2017-09-06T07:38:22.887Z,3.40
2017-09-06T07:40:50.328Z,3.20
2017-09-06T07:43:17.755Z,2.10
2017-09-06T07:45:45.210Z,3.30
2017-09-06T07:48:12.639Z,3.17
2017-09-06T07:50:40.078Z,3.00
2017-09-06T07:53:07.520Z,2.53
2017-09-06T07:55:35.017Z,3.17
2017-09-06T07:58:02.458Z,3.00
2017-09-06T08:00:29.891Z,2.97
2017-09-06T08:02:57.338Z,2.67
2017-09-06T08:05:25.561Z,2.60
2017-09-06T08:08:13.824Z,2.47
2017-09-06T08:10:41.269Z,2.70
2017-09-06T08:13:08.720Z,2.20
2017-09-06T08:15:36.152Z,2.70
2017-09-06T08:18:03.592Z,2.67
2017-09-06T08:20:31.026Z,2.53
2017-09-06T08:22:58.469Z,3.10
2017-09-06T08:25:25.904Z,2.40
2017-09-06T08:27:53.362Z,2.63
2017-09-06T08:30:20.817Z,2.57
2017-09-06T08:32:48.257Z,1.80
2017-09-06T08:35:15.702Z,1.90
2017-09-06T08:37:43.132Z,2.40
2017-09-06T08:40:10.580Z,2.07
2017-09-06T08:42:38.772Z,2.60
2017-09-06T08:45:06.269Z,2.60
2017-09-06T08:47:33.735Z,2.83
2017-09-06T08:50:01.179Z,2.50
2017-09-06T08:52:28.617Z,2.57
2017-09-06T08:54:56.077Z,2.20
2017-09-06T08:57:23.519Z,1.80
2017-09-06T08:59:51.012Z,2.13
2017-09-06T09:02:18.457Z,2.27
2017-09-06T09:04:45.889Z,2.07
2017-09-06T09:07:13.328Z,2.30
2017-09-06T09:09:40.765Z,2.33
2017-09-06T09:12:08.213Z,1.73
2017-09-06T09:14:35.653Z,2.23
2017-09-06T09:17:03.094Z,1.90
2017-09-06T09:19:30.530Z,1.80
2017-09-06T09:21:57.976Z,2.10
2017-09-06T09:24:25.409Z,1.10
2017-09-06T09:26:52.859Z,1.60
2017-09-06T09:29:20.391Z,1.80
2017-09-06T09:31:47.825Z,2.00
2017-09-06T09:34:15.260Z,2.37
2017-09-06T09:36:42.725Z,2.83
2017-09-06T09:39:10.154Z,2.73
2017-09-06T09:41:37.588Z,3.20
2017-09-06T09:44:05.037Z,2.17
2017-09-06T09:46:32.473Z,2.43
2017-09-06T09:48:59.921Z,2.53
2017-09-06T09:51:27.352Z,2.83
2017-09-06T09:53:54.801Z,2.90
2017-09-06T09:56:22.241Z,3.00
2017-09-06T09:58:49.676Z,2.40
2017-09-06T10:01:17.158Z,2.60
2017-09-06T10:03:44.555Z,2.60
2017-09-06T10:06:11.989Z,2.40
2017-09-06T10:08:39.425Z,2.20
2017-09-06T10:11:06.864Z,3.10
2017-09-06T10:13:34.304Z,2.90
2017-09-06T10:16:01.865Z,3.00
2017-09-06T10:18:29.298Z,3.00
2017-09-06T10:20:56.736Z,3.27
2017-09-06T10:23:24.173Z,3.20
2017-09-06T10:25:51.613Z,4.00
2017-09-06T10:28:19.050Z,3.27
2017-09-06T10:30:46.494Z,3.17
2017-09-06T10:33:13.932Z,2.70
2017-09-06T10:35:41.372Z,2.43
2017-09-06T10:38:08.804Z,2.80
2017-09-06T10:40:37.012Z,3.03
2017-09-06T10:43:04.449Z,3.23
2017-09-06T10:45:31.895Z,2.73
2017-09-06T10:48:00.101Z,2.37
2017-09-06T10:50:27.533Z,2.90
2017-09-06T10:52:54.980Z,2.10
2017-09-06T10:55:22.422Z,2.03
2017-09-06T10:57:49.867Z,2.30
2017-09-06T11:00:17.301Z,2.30
2017-09-06T11:02:44.748Z,2.00
2017-09-06T11:05:12.184Z,1.80
2017-09-06T11:07:39.629Z,1.87
2017-09-06T11:10:07.064Z,1.60
2017-09-06T11:12:34.508Z,1.73
2017-09-06T11:15:01.944Z,1.47
2017-09-06T11:17:29.393Z,1.63
2017-09-06T11:19:56.828Z,1.50
2017-09-06T11:22:24.277Z,1.50
2017-09-06T11:24:51.720Z,1.20
2017-09-06T11:27:19.189Z,1.93
2017-09-06T11:29:46.613Z,1.40
2017-09-06T11:32:14.058Z,1.50
2017-09-06T11:34:41.500Z,1.10
2017-09-06T11:37:08.941Z,1.40
2017-09-06T11:39:36.384Z,1.13
2017-09-06T11:42:03.826Z,1.00
2017-09-06T11:44:31.341Z,1.10
2017-09-06T11:46:58.781Z,1.37
2017-09-06T11:49:26.226Z,0.80
2017-09-06T11:51:53.664Z,0.97
2017-09-06T11:54:21.103Z,0.80
2017-09-06T11:56:48.540Z,0.80
2017-09-06T11:59:15.981Z,0.70
2017-09-06T12:01:43.449Z,0.90
2017-09-06T12:04:10.894Z,0.90
2017-09-06T12:06:38.334Z,1.00
2017-09-06T12:09:05.801Z,0.90
2017-09-06T12:11:33.307Z,0.90
2017-09-06T12:14:00.745Z,1.00
2017-09-06T12:16:28.213Z,1.00
2017-09-06T12:18:55.654Z,0.80
2017-09-06T12:21:23.120Z,0.80
2017-09-06T12:23:50.547Z,0.70
2017-09-06T12:26:18.096Z,1.00
2017-09-06T12:28:46.869Z,1.00
2017-09-06T12:31:19.099Z,0.90
2017-09-06T12:33:46.529Z,0.80
2017-09-06T12:36:13.974Z,0.90
2017-09-06T12:38:41.405Z,0.90
2017-09-06T12:41:08.850Z,1.20
2017-09-06T12:43:36.285Z,0.80
2017-09-06T12:46:03.721Z,1.03
2017-09-06T12:48:31.156Z,1.17
2017-09-06T12:50:58.604Z,1.33
2017-09-06T12:53:26.036Z,0.90
2017-09-06T12:55:53.473Z,1.30
2017-09-06T12:58:20.916Z,1.20
2017-09-06T13:00:48.352Z,1.17
2017-09-06T13:03:15.791Z,1.20
2017-09-06T13:05:43.228Z,1.60
2017-09-06T13:08:10.674Z,1.23
2017-09-06T13:10:38.103Z,2.17
2017-09-06T13:13:05.553Z,1.20
2017-09-06T13:15:32.976Z,1.10
2017-09-06T13:18:00.424Z,1.40
2017-09-06T13:20:27.861Z,1.30
2017-09-06T13:22:55.309Z,1.30
2017-09-06T13:25:22.745Z,1.50
2017-09-06T13:27:51.528Z,1.43
2017-09-06T13:30:20.313Z,1.40
2017-09-06T13:32:49.095Z,1.60
2017-09-06T13:35:17.891Z,1.80
2017-09-06T13:37:46.667Z,1.50
2017-09-06T13:40:15.461Z,1.73
2017-09-06T13:42:44.246Z,1.40
2017-09-06T13:45:13.037Z,1.80
2017-09-06T13:47:41.820Z,1.57
2017-09-06T13:50:10.608Z,1.80
2017-09-06T13:52:39.400Z,1.63
2017-09-06T13:55:08.187Z,1.70
2017-09-06T13:57:37.141Z,2.00
2017-09-06T14:00:05.931Z,1.93
2017-09-06T14:02:34.710Z,1.70
2017-09-06T14:05:03.509Z,1.50
2017-09-06T14:07:32.291Z,1.43
2017-09-06T14:10:01.083Z,1.70
2017-09-06T14:12:29.863Z,2.10
2017-09-06T14:14:58.664Z,1.50
2017-09-06T14:17:27.448Z,1.90
2017-09-06T14:19:56.227Z,1.60
2017-09-06T14:22:25.023Z,1.80
2017-09-06T14:24:53.799Z,2.20
2017-09-06T14:27:22.587Z,1.60
2017-09-06T14:29:51.377Z,2.13
2017-09-06T14:32:20.163Z,2.00
2017-09-06T14:34:48.951Z,2.27
2017-09-06T14:37:17.736Z,1.70
2017-09-06T14:39:46.515Z,2.23
2017-09-06T14:42:15.308Z,2.23
2017-09-06T14:44:44.093Z,2.13
2017-09-06T14:47:12.883Z,2.37
2017-09-06T14:49:41.676Z,2.30
2017-09-06T14:52:10.471Z,1.90
2017-09-06T14:54:39.255Z,2.40
2017-09-06T14:57:08.040Z,2.20
2017-09-06T14:59:36.824Z,1.97
2017-09-06T15:02:05.618Z,2.60
2017-09-06T15:04:34.404Z,1.70
2017-09-06T15:07:03.179Z,1.80
2017-09-06T15:09:31.967Z,2.20
2017-09-06T15:12:00.752Z,1.93
2017-09-06T15:14:29.544Z,2.00
2017-09-06T15:16:58.324Z,1.73
2017-09-06T15:19:27.112Z,2.03
2017-09-06T15:21:55.894Z,2.20
2017-09-06T15:24:24.684Z,1.80
2017-09-06T15:26:53.467Z,2.10
2017-09-06T15:29:22.260Z,2.63
2017-09-06T15:31:51.035Z,2.33
2017-09-06T15:34:19.828Z,2.07
2017-09-06T15:36:48.608Z,3.00
2017-09-06T15:39:17.403Z,2.70
2017-09-06T15:41:45.978Z,2.67
2017-09-06T15:44:14.127Z,3.03
2017-09-06T15:49:35.561Z,2.63
2017-09-06T15:52:05.521Z,3.27
2017-09-06T15:54:43.096Z,2.93
2017-09-06T15:57:11.449Z,2.53
2017-09-06T16:12:57.567Z,3.80
2017-09-06T16:15:34.463Z,2.43
2017-09-06T16:18:02.016Z,3.20
2017-09-06T16:20:30.305Z,2.83
2017-09-06T16:23:06.205Z,3.10
2017-09-06T16:25:33.813Z,3.10
2017-09-06T16:28:01.976Z,3.63
2017-09-06T16:30:29.474Z,3.17
2017-09-06T16:32:56.992Z,3.00
2017-09-06T16:35:24.518Z,3.53
2017-09-06T16:37:52.157Z,3.10
2017-09-06T16:53:57.504Z,3.00
2017-09-06T16:56:25.025Z,2.57
2017-09-06T16:58:52.542Z,3.20
2017-09-06T17:06:05.681Z,2.77
2017-09-06T17:08:46.414Z,3.20
2017-09-06T17:11:13.938Z,2.47
2017-09-06T17:13:41.423Z,2.47
2017-09-06T17:16:20.852Z,4.43
2017-09-06T17:18:48.354Z,3.43
2017-09-06T17:21:15.844Z,3.10
2017-09-06T17:23:44.158Z,3.07
2017-09-06T17:26:20.452Z,3.50
2017-09-06T17:28:47.989Z,3.27
2017-09-06T17:31:15.729Z,3.00
2017-09-06T17:33:43.594Z,2.77
2017-09-06T17:36:11.283Z,2.43
2017-09-06T17:38:38.892Z,2.77
2017-09-06T17:41:07.698Z,2.77
2017-09-06T17:43:41.882Z,2.97
2017-09-06T18:32:37.690Z,2.40
2017-09-06T18:35:05.360Z,2.70
2017-09-06T18:37:43.334Z,2.50
2017-09-06T18:40:10.880Z,2.43
2017-09-06T18:42:38.453Z,2.13
2017-09-06T18:45:06.058Z,2.63
2017-09-06T18:47:33.710Z,2.53
2017-09-06T18:50:01.260Z,3.27
2017-09-06T18:52:28.875Z,3.03
2017-09-06T18:54:56.462Z,2.37
2017-09-06T18:57:25.017Z,2.50
2017-09-06T18:59:52.627Z,2.70
2017-09-06T19:02:20.177Z,3.10
2017-09-06T19:04:47.701Z,2.58
2017-09-06T19:07:15.234Z,2.87
2017-09-06T19:09:42.860Z,2.80
2017-09-06T19:12:10.419Z,2.13
2017-09-06T19:14:37.995Z,2.73
2017-09-06T19:17:05.490Z,2.33
2017-09-06T19:19:33.039Z,2.53
2017-09-06T19:22:00.647Z,2.00
2017-09-06T19:24:28.259Z,2.33
2017-09-06T19:26:55.854Z,1.97
2017-09-06T19:29:23.379Z,2.73
2017-09-06T19:31:50.975Z,1.93
2017-09-06T19:34:21.533Z,2.40
2017-09-06T19:36:49.102Z,2.23
2017-09-06T19:39:16.630Z,2.63
2017-09-06T19:41:44.175Z,2.30
2017-09-06T19:44:11.701Z,2.83
2017-09-06T19:46:40.294Z,2.37
2017-09-06T19:49:08.665Z,2.13
2017-09-06T19:51:37.260Z,2.80
2017-09-06T19:54:04.855Z,1.83
2017-09-06T19:56:32.398Z,2.30
2017-09-06T19:58:59.853Z,2.50
2017-09-06T20:01:27.353Z,2.07
2017-09-06T20:03:54.964Z,3.00
2017-09-06T20:06:22.455Z,2.40
2017-09-06T20:08:50.005Z,1.93
2017-09-06T20:11:17.534Z,2.13
2017-09-06T20:13:45.079Z,2.20
2017-09-06T20:16:12.638Z,2.20
2017-09-06T20:21:14.179Z,2.50
2017-09-06T20:23:41.724Z,1.97
2017-09-06T20:26:09.213Z,2.00
2017-09-06T20:28:36.752Z,2.40
2017-09-06T20:31:04.305Z,2.17
2017-09-06T20:33:38.811Z,3.03
2017-09-06T20:36:06.317Z,2.17
2017-09-06T20:38:36.818Z,2.57
2017-09-06T20:41:04.319Z,2.50
2017-09-06T20:43:31.810Z,1.97
2017-09-06T20:45:59.330Z,2.30
2017-09-06T20:51:00.850Z,2.17
2017-09-06T20:53:28.366Z,2.47
2017-09-06T20:55:55.875Z,2.47
2017-09-06T20:58:23.383Z,2.67
2017-09-06T21:00:51.074Z,2.10
2017-09-06T21:03:18.580Z,2.43
2017-09-06T21:05:46.106Z,2.80
2017-09-06T21:08:13.618Z,2.43
2017-09-06T21:10:42.851Z,2.10
2017-09-06T21:13:17.374Z,3.20
2017-09-06T21:15:44.864Z,2.63
2017-09-06T21:18:12.381Z,2.07
2017-09-06T21:20:39.886Z,2.67
2017-09-06T21:23:07.390Z,2.93
2017-09-06T21:25:34.908Z,2.30
2017-09-06T21:28:02.410Z,2.63
2017-09-06T21:30:38.920Z,2.60
2017-09-06T21:33:06.599Z,2.57
2017-09-06T21:35:34.105Z,2.67
2017-09-06T21:38:01.649Z,2.90
2017-09-06T21:40:29.158Z,3.10
2017-09-06T21:42:56.670Z,2.57
2017-09-06T21:45:24.159Z,2.70
2017-09-06T21:47:51.669Z,2.97
2017-09-06T21:50:19.187Z,2.67
2017-09-06T21:52:46.692Z,2.07
2017-09-06T21:55:14.137Z,2.60
2017-09-06T21:57:41.580Z,2.60
2017-09-06T22:00:09.021Z,2.40
2017-09-06T22:02:36.465Z,2.10
2017-09-06T22:05:03.900Z,2.67
2017-09-06T22:07:31.350Z,2.90
2017-09-06T22:09:58.792Z,2.50
2017-09-06T22:12:26.262Z,3.43
2017-09-06T22:14:53.698Z,2.67
2017-09-06T22:17:21.146Z,2.67
2017-09-06T22:19:48.584Z,2.90
2017-09-06T22:22:16.030Z,4.30
2017-09-06T22:24:43.477Z,3.40
2017-09-06T22:27:15.892Z,3.23
2017-09-06T22:29:43.339Z,3.20
2017-09-06T22:32:10.785Z,3.27
2017-09-06T22:34:38.238Z,2.70
2017-09-06T22:37:09.479Z,3.40
2017-09-06T22:39:36.974Z,2.73
2017-09-06T22:42:04.412Z,3.90
2017-09-06T22:44:31.852Z,3.23
2017-09-06T22:46:59.309Z,2.83
2017-09-06T22:49:26.782Z,3.73
2017-09-06T22:51:54.239Z,2.63
2017-09-06T22:54:21.690Z,3.33
2017-09-06T22:56:49.157Z,2.73
2017-09-06T22:59:16.613Z,2.70
2017-09-06T23:01:44.057Z,3.70
2017-09-06T23:04:11.546Z,3.37
2017-09-06T23:06:38.961Z,2.43
2017-09-06T23:09:06.422Z,3.13
2017-09-06T23:11:33.894Z,3.20
2017-09-06T23:14:01.346Z,3.30
2017-09-06T23:16:28.833Z,3.10
2017-09-06T23:18:56.302Z,3.40
2017-09-06T23:21:23.753Z,2.80
2017-09-06T23:23:51.209Z,3.20
2017-09-06T23:26:18.669Z,2.90
2017-09-06T23:31:20.147Z,3.70
2017-09-06T23:33:47.605Z,3.17
2017-09-06T23:36:15.070Z,2.70
2017-09-06T23:38:42.565Z,3.23
2017-09-06T23:41:10.023Z,2.90
2017-09-06T23:43:37.479Z,3.27
2017-09-06T23:46:04.936Z,4.03
2017-09-06T23:48:32.380Z,2.73
2017-09-06T23:50:59.836Z,3.30
2017-09-06T23:53:27.324Z,4.30
2017-09-06T23:55:54.765Z,3.10
2017-09-06T23:58:22.253Z,2.80
